Time;durP1;ratioP1;P1;durP2;ratioP2;P2;SDS_P1;SDS_P2;PMS_P1;PMS_P2;Temp;Humidity;BMP_temperature;BMP_pressure;BME280_temperature;BME280_humidity;BME280_pressure;Samples;Min_cycle;Max_cycle;Signal;HPM_P1;HPM_P2
2022/01/02 00:01:36;;;;;;;;;;;21.30;60.90;;;;;;5036589;28;20057;-67
2022/01/02 00:04:02;;;;;;;;;;;21.30;60.60;;;;;;5037994;28;19913;-71
2022/01/02 00:06:30;;;;;;;;;;;21.30;60.70;;;;;;5033700;28;19916;-67
2022/01/02 00:09:01;;;;;;;;;;;21.30;60.50;;;;;;5037085;28;19920;-70
2022/01/02 00:11:26;;;;;;;;;;;21.30;60.70;;;;;;5039128;28;19912;-68
2022/01/02 00:13:54;;;;;;;;;;;21.40;60.90;;;;;;5036847;28;19952;-66
2022/01/02 00:16:20;;;;;;;;;;;21.30;60.90;;;;;;5042029;28;19917;-69
2022/01/02 00:18:52;;;;;;;;;;;21.30;60.80;;;;;;5041668;28;19955;-67
2022/01/02 00:21:18;;;;;;;;;;;21.30;60.70;;;;;;5033623;28;19913;-70
2022/01/02 00:24:02;;;;;;;;;;;21.30;60.70;;;;;;5038583;28;20298;-68
2022/01/02 00:26:51;;;;;;;;;;;21.30;60.80;;;;;;5041348;28;19955;-70
2022/01/02 00:29:19;;;;;;;;;;;21.30;60.80;;;;;;5038395;28;19999;-67
2022/01/02 00:31:45;;;;;;;;;;;21.30;60.80;;;;;;5036077;28;19923;-67
2022/01/02 00:34:11;;;;;;;;;;;21.30;60.80;;;;;;5034942;28;19959;-66
2022/01/02 00:36:37;;;;;;;;;;;21.30;60.70;;;;;;5036228;28;19920;-66
2022/01/02 00:39:04;;;;;;;;;;;21.30;60.80;;;;;;5035136;28;19924;-68
2022/01/02 00:41:44;;;;;;;;;;;21.30;60.70;;;;;;5030351;28;19936;-65
2022/01/02 00:44:39;;;;;;;;;;;21.30;60.60;;;;;;5038962;28;19913;-66
2022/01/02 00:47:07;;;;;;;;;;;21.30;60.60;;;;;;4980616;28;19952;-67
2022/01/02 00:49:37;;;;;;;;;;;21.30;60.50;;;;;;5038419;28;19912;-67
2022/01/02 00:52:03;;;;;;;;;;;21.30;60.80;;;;;;5038420;28;19913;-68
2022/01/02 00:54:30;;;;;;;;;;;21.30;60.60;;;;;;5039428;28;20368;-65
2022/01/02 00:56:57;;;;;;;;;;;21.30;60.80;;;;;;5043409;28;19921;-67
2022/01/02 00:59:26;;;;;;;;;;;21.30;60.60;;;;;;5038372;28;20057;-66
2022/01/02 01:01:57;;;;;;;;;;;21.30;60.50;;;;;;5033177;28;19971;-66
2022/01/02 01:04:24;;;;;;;;;;;21.30;60.60;;;;;;5039465;28;20328;-69
2022/01/02 01:06:51;;;;;;;;;;;21.30;60.40;;;;;;5040654;28;19920;-66
2022/01/02 01:09:17;;;;;;;;;;;21.30;60.50;;;;;;5040149;28;19912;-68
2022/01/02 01:11:44;;;;;;;;;;;21.20;60.40;;;;;;5037071;28;19952;-68
2022/01/02 01:14:09;;;;;;;;;;;21.30;60.50;;;;;;5036537;28;19920;-69
2022/01/02 01:16:36;;;;;;;;;;;21.30;60.60;;;;;;5039349;28;19921;-64
2022/01/02 01:19:02;;;;;;;;;;;21.30;60.60;;;;;;5039790;28;19979;-68
2022/01/02 01:21:28;;;;;;;;;;;21.30;60.50;;;;;;5041660;28;19992;-66
2022/01/02 01:23:54;;;;;;;;;;;21.20;60.40;;;;;;5040613;28;19978;-65
2022/01/02 01:26:19;;;;;;;;;;;21.30;60.50;;;;;;5041027;28;19948;-66
2022/01/02 01:28:45;;;;;;;;;;;21.20;60.30;;;;;;5042171;28;20420;-68
2022/01/02 01:31:11;;;;;;;;;;;21.30;60.50;;;;;;5045473;28;19924;-65
2022/01/02 01:33:36;;;;;;;;;;;21.30;60.50;;;;;;5039958;28;19920;-65
2022/01/02 01:36:01;;;;;;;;;;;21.20;60.30;;;;;;5041283;28;20102;-65
2022/01/02 01:38:27;;;;;;;;;;;21.20;60.50;;;;;;5040529;28;19908;-66
2022/01/02 01:40:55;;;;;;;;;;;21.20;60.40;;;;;;5041676;28;19924;-67
2022/01/02 01:43:31;;;;;;;;;;;21.30;60.60;;;;;;5040158;28;19908;-68
2022/01/02 01:45:56;;;;;;;;;;;21.20;60.30;;;;;;5038443;28;19913;-69
2022/01/02 01:48:22;;;;;;;;;;;21.20;60.40;;;;;;5039715;28;19982;-68
2022/01/02 01:50:47;;;;;;;;;;;21.20;60.30;;;;;;5041015;28;19956;-66
2022/01/02 01:53:13;;;;;;;;;;;21.20;60.20;;;;;;5041669;28;19923;-67
2022/01/02 01:55:39;;;;;;;;;;;21.30;60.30;;;;;;5037479;28;19920;-68
2022/01/02 01:58:05;;;;;;;;;;;21.20;60.20;;;;;;5043597;28;20011;-67
2022/01/02 02:00:33;;;;;;;;;;;21.20;60.50;;;;;;5034566;28;19927;-68
2022/01/02 02:02:59;;;;;;;;;;;21.20;60.40;;;;;;5040493;28;20312;-67
2022/01/02 02:05:25;;;;;;;;;;;21.20;60.30;;;;;;5040649;28;19967;-67
2022/01/02 02:07:50;;;;;;;;;;;21.20;60.20;;;;;;5042237;28;19970;-69
2022/01/02 02:10:23;;;;;;;;;;;21.20;60.30;;;;;;5037159;28;19912;-66
2022/01/02 02:12:50;;;;;;;;;;;21.30;60.30;;;;;;5040164;28;19987;-66
2022/01/02 02:15:16;;;;;;;;;;;21.20;60.20;;;;;;5040978;28;20325;-69
2022/01/02 02:17:45;;;;;;;;;;;21.20;60.30;;;;;;5041262;28;20572;-69
2022/01/02 02:20:14;;;;;;;;;;;21.20;60.30;;;;;;5038214;28;19920;-66
2022/01/02 02:22:41;;;;;;;;;;;21.20;60.20;;;;;;5039436;28;19963;-66
2022/01/02 02:25:07;;;;;;;;;;;21.20;60.20;;;;;;5037801;28;19912;-67
2022/01/02 02:27:32;;;;;;;;;;;21.20;60.40;;;;;;5036290;28;19966;-66
2022/01/02 02:29:58;;;;;;;;;;;21.20;60.20;;;;;;5040159;28;19948;-66
2022/01/02 02:32:24;;;;;;;;;;;21.20;60.30;;;;;;5039498;28;20407;-66
2022/01/02 02:34:49;;;;;;;;;;;21.20;60.20;;;;;;5040978;28;19908;-70
2022/01/02 02:37:15;;;;;;;;;;;21.20;60.20;;;;;;5039251;28;20019;-70
2022/01/02 02:39:40;;;;;;;;;;;21.20;60.10;;;;;;5038176;28;19913;-66
2022/01/02 02:42:14;;;;;;;;;;;21.20;60.00;;;;;;5037104;28;20427;-67
2022/01/02 02:44:40;;;;;;;;;;;21.20;60.00;;;;;;5045101;28;19923;-67
2022/01/02 02:49:50;;;;;;;;;;;21.10;59.90;;;;;;5044960;28;19915;-66
2022/01/02 02:52:34;;;;;;;;;;;21.20;60.10;;;;;;5042099;28;19916;-66
2022/01/02 02:54:59;;;;;;;;;;;21.20;59.90;;;;;;5039703;28;19955;-69
2022/01/02 02:57:25;;;;;;;;;;;21.10;59.80;;;;;;5044490;28;19916;-66
2022/01/02 02:59:50;;;;;;;;;;;21.20;59.90;;;;;;5043952;28;19946;-67
2022/01/02 03:02:16;;;;;;;;;;;21.20;59.80;;;;;;5040342;28;19944;-66
2022/01/02 03:04:42;;;;;;;;;;;21.20;59.80;;;;;;5041628;28;20069;-68
2022/01/02 03:07:08;;;;;;;;;;;21.10;59.70;;;;;;5043361;28;19984;-70
2022/01/02 03:09:38;;;;;;;;;;;21.10;59.60;;;;;;5040528;28;20296;-67
2022/01/02 03:12:07;;;;;;;;;;;21.20;59.70;;;;;;5042931;28;19913;-67
2022/01/02 03:14:33;;;;;;;;;;;21.20;59.60;;;;;;5040178;28;20353;-70
2022/01/02 03:16:59;;;;;;;;;;;21.10;59.60;;;;;;5041503;28;19922;-67
2022/01/02 03:19:24;;;;;;;;;;;21.20;59.50;;;;;;5043905;28;20292;-66
2022/01/02 03:21:50;;;;;;;;;;;21.20;59.50;;;;;;5041971;28;20214;-70
2022/01/02 03:24:15;;;;;;;;;;;21.20;59.50;;;;;;5041451;28;19916;-69
2022/01/02 03:26:41;;;;;;;;;;;21.20;59.50;;;;;;5036885;28;19940;-66
2022/01/02 03:29:06;;;;;;;;;;;21.20;59.50;;;;;;5038708;28;19940;-67
2022/01/02 03:31:32;;;;;;;;;;;21.10;60.00;;;;;;5036115;28;19916;-66
2022/01/02 03:33:57;;;;;;;;;;;21.20;59.50;;;;;;5035443;28;19908;-66
2022/01/02 03:36:23;;;;;;;;;;;21.10;59.40;;;;;;5036346;28;20414;-67
2022/01/02 03:38:48;;;;;;;;;;;21.20;59.50;;;;;;5041872;28;19951;-67
2022/01/02 03:41:14;;;;;;;;;;;21.20;59.50;;;;;;5040067;28;20369;-67
2022/01/02 03:43:39;;;;;;;;;;;21.10;59.40;;;;;;5041403;28;20021;-68
2022/01/02 03:46:05;;;;;;;;;;;21.10;59.40;;;;;;5041590;28;19915;-66
2022/01/02 03:48:31;;;;;;;;;;;21.10;59.40;;;;;;5039075;28;20277;-68
2022/01/02 03:50:57;;;;;;;;;;;21.10;59.40;;;;;;5038651;28;19912;-66
2022/01/02 03:53:23;;;;;;;;;;;21.10;59.30;;;;;;5036847;28;19916;-65
2022/01/02 03:55:48;;;;;;;;;;;21.10;59.80;;;;;;5035271;28;19976;-70
2022/01/02 03:58:14;;;;;;;;;;;21.10;59.40;;;;;;5043707;28;19927;-69
2022/01/02 04:00:39;;;;;;;;;;;21.10;59.30;;;;;;5040927;28;19978;-70
2022/01/02 04:03:05;;;;;;;;;;;21.10;59.80;;;;;;5039665;28;19917;-68
2022/01/02 04:05:30;;;;;;;;;;;21.00;59.20;;;;;;5038577;28;19916;-67
2022/01/02 04:07:56;;;;;;;;;;;21.10;59.30;;;;;;5041726;28;19913;-66
2022/01/02 04:10:21;;;;;;;;;;;21.10;59.80;;;;;;5038785;28;19909;-67
2022/01/02 04:12:47;;;;;;;;;;;21.00;59.20;;;;;;5042953;28;19983;-66
2022/01/02 04:15:13;;;;;;;;;;;21.10;59.30;;;;;;5040865;28;19948;-67
2022/01/02 04:17:39;;;;;;;;;;;21.10;59.20;;;;;;5042849;28;20027;-66
2022/01/02 04:20:06;;;;;;;;;;;21.10;59.20;;;;;;5042057;28;19908;-67
2022/01/02 04:22:31;;;;;;;;;;;21.10;59.20;;;;;;5039804;28;19919;-70
2022/01/02 04:24:57;;;;;;;;;;;21.10;59.20;;;;;;5042750;28;19913;-69
2022/01/02 04:27:23;;;;;;;;;;;21.10;59.20;;;;;;5045816;28;19917;-66
2022/01/02 04:29:49;;;;;;;;;;;21.10;59.10;;;;;;5038959;28;19978;-66
2022/01/02 04:32:15;;;;;;;;;;;21.00;59.10;;;;;;5036527;28;20042;-66
2022/01/02 04:34:41;;;;;;;;;;;21.00;59.00;;;;;;5044426;28;19908;-66
2022/01/02 04:37:06;;;;;;;;;;;21.00;59.00;;;;;;5042492;28;19958;-67
2022/01/02 04:39:32;;;;;;;;;;;21.10;59.10;;;;;;5043555;28;19973;-66
2022/01/02 04:41:58;;;;;;;;;;;21.00;59.00;;;;;;5043610;28;19913;-66
2022/01/02 04:44:24;;;;;;;;;;;21.00;59.00;;;;;;5041291;28;20081;-66
2022/01/02 04:46:49;;;;;;;;;;;21.00;59.10;;;;;;5046094;28;19912;-66
2022/01/02 04:49:15;;;;;;;;;;;21.00;59.00;;;;;;5042093;28;19912;-67
2022/01/02 04:51:40;;;;;;;;;;;21.00;59.00;;;;;;5042738;28;19917;-69
2022/01/02 04:54:06;;;;;;;;;;;21.00;59.00;;;;;;5044179;28;19913;-66
2022/01/02 04:56:31;;;;;;;;;;;21.00;59.00;;;;;;5042322;28;19921;-70
2022/01/02 04:58:57;;;;;;;;;;;21.00;59.00;;;;;;5040437;28;19919;-66
2022/01/02 05:01:22;;;;;;;;;;;21.00;59.00;;;;;;5041408;28;20339;-66
2022/01/02 05:03:48;;;;;;;;;;;20.90;58.90;;;;;;5040450;28;19917;-68
2022/01/02 05:06:13;;;;;;;;;;;21.00;59.00;;;;;;5039307;28;19925;-67
2022/01/02 05:08:43;;;;;;;;;;;21.00;59.00;;;;;;5040897;28;19912;-67
2022/01/02 05:11:08;;;;;;;;;;;21.00;59.00;;;;;;5041579;28;19908;-67
2022/01/02 05:13:34;;;;;;;;;;;20.90;59.00;;;;;;5041100;28;19923;-67
2022/01/02 05:15:59;;;;;;;;;;;20.90;58.90;;;;;;5044212;28;19991;-65
2022/01/02 05:18:25;;;;;;;;;;;20.90;58.90;;;;;;5041665;28;20300;-68
2022/01/02 05:20:50;;;;;;;;;;;20.90;58.90;;;;;;5042092;28;19913;-66
2022/01/02 05:23:16;;;;;;;;;;;20.90;59.00;;;;;;5040975;28;19913;-70
2022/01/02 05:25:42;;;;;;;;;;;20.90;59.50;;;;;;5043797;28;19962;-67
2022/01/02 05:28:09;;;;;;;;;;;20.90;58.90;;;;;;5042926;28;19920;-69
2022/01/02 05:30:35;;;;;;;;;;;20.90;58.90;;;;;;5033918;28;19924;-70
2022/01/02 05:33:01;;;;;;;;;;;20.90;58.90;;;;;;5044676;28;19944;-70
2022/01/02 05:35:26;;;;;;;;;;;20.90;58.90;;;;;;5044836;28;20330;-70
2022/01/02 05:37:52;;;;;;;;;;;20.90;58.90;;;;;;5038083;28;19909;-66
2022/01/02 05:40:17;;;;;;;;;;;20.90;58.90;;;;;;5043606;28;19951;-66
2022/01/02 05:42:43;;;;;;;;;;;20.90;58.90;;;;;;5044468;28;20499;-67
2022/01/02 05:45:08;;;;;;;;;;;20.90;58.90;;;;;;5044760;28;19913;-66
2022/01/02 05:47:36;;;;;;;;;;;20.90;58.90;;;;;;5039825;28;19909;-65
2022/01/02 05:50:01;;;;;;;;;;;20.90;58.90;;;;;;5043095;28;19951;-66
2022/01/02 05:52:31;;;;;;;;;;;20.90;58.90;;;;;;5039231;28;19912;-70
2022/01/02 05:54:56;;;;;;;;;;;20.80;58.80;;;;;;5039730;28;19909;-67
2022/01/02 05:57:21;;;;;;;;;;;20.90;58.90;;;;;;5042334;28;20014;-67
2022/01/02 05:59:47;;;;;;;;;;;20.90;58.90;;;;;;5039975;28;19920;-67
2022/01/02 06:02:12;;;;;;;;;;;20.90;58.90;;;;;;5038500;28;19964;-69
2022/01/02 06:04:38;;;;;;;;;;;20.80;58.80;;;;;;5041897;28;19947;-67
2022/01/02 06:07:04;;;;;;;;;;;20.80;58.80;;;;;;5038023;28;19915;-69
2022/01/02 06:09:30;;;;;;;;;;;20.80;58.80;;;;;;5044131;28;19943;-67
2022/01/02 06:11:55;;;;;;;;;;;20.80;58.80;;;;;;5043897;28;20309;-70
2022/01/02 06:14:21;;;;;;;;;;;20.80;58.80;;;;;;5040972;28;20277;-66
2022/01/02 06:16:46;;;;;;;;;;;20.80;58.80;;;;;;5042761;28;19920;-69
2022/01/02 06:19:12;;;;;;;;;;;20.80;58.80;;;;;;5040756;28;19935;-66
2022/01/02 06:21:37;;;;;;;;;;;20.80;58.80;;;;;;5041815;28;20565;-67
2022/01/02 06:24:03;;;;;;;;;;;20.80;58.80;;;;;;5040471;28;19923;-67
2022/01/02 06:26:28;;;;;;;;;;;20.80;58.80;;;;;;5044449;28;19931;-69
2022/01/02 06:28:54;;;;;;;;;;;20.80;58.80;;;;;;5040601;28;20528;-65
2022/01/02 06:31:19;;;;;;;;;;;20.80;58.80;;;;;;5042479;28;19917;-69
2022/01/02 06:33:45;;;;;;;;;;;20.80;58.80;;;;;;5041731;28;19916;-67
2022/01/02 06:36:10;;;;;;;;;;;20.80;58.80;;;;;;5040646;28;19939;-69
2022/01/02 06:38:36;;;;;;;;;;;20.80;58.80;;;;;;5038437;28;19916;-66
2022/01/02 06:41:01;;;;;;;;;;;20.80;58.80;;;;;;5042109;28;19913;-67
2022/01/02 06:43:27;;;;;;;;;;;20.80;58.80;;;;;;5037940;28;19913;-70
2022/01/02 06:45:52;;;;;;;;;;;20.80;58.80;;;;;;5041384;28;19950;-69
2022/01/02 06:48:18;;;;;;;;;;;20.80;58.70;;;;;;5044685;28;19912;-65
2022/01/02 06:50:43;;;;;;;;;;;20.80;59.30;;;;;;5038059;28;20416;-69
2022/01/02 06:53:09;;;;;;;;;;;20.70;58.70;;;;;;5040447;28;19981;-70
2022/01/02 06:55:34;;;;;;;;;;;20.70;58.70;;;;;;5042555;28;20316;-66
2022/01/02 06:58:00;;;;;;;;;;;20.80;58.70;;;;;;5041956;28;19923;-66
2022/01/02 07:00:25;;;;;;;;;;;20.70;58.70;;;;;;5039926;28;20000;-65
2022/01/02 07:02:51;;;;;;;;;;;20.80;58.70;;;;;;5042437;28;20564;-66
2022/01/02 07:05:17;;;;;;;;;;;20.70;58.70;;;;;;5042065;28;19916;-66
2022/01/02 07:07:44;;;;;;;;;;;20.70;58.60;;;;;;5041742;28;19917;-70
2022/01/02 07:10:10;;;;;;;;;;;20.70;58.60;;;;;;5039403;28;19955;-69
2022/01/02 07:12:36;;;;;;;;;;;20.70;58.60;;;;;;5042995;28;19919;-66
2022/01/02 07:15:05;;;;;;;;;;;20.70;58.60;;;;;;5042062;28;19912;-66
2022/01/02 07:17:31;;;;;;;;;;;20.70;58.60;;;;;;5040639;28;20376;-67
2022/01/02 07:19:56;;;;;;;;;;;20.70;58.60;;;;;;5039558;28;19919;-66
2022/01/02 07:22:22;;;;;;;;;;;20.70;58.60;;;;;;5039626;28;20388;-67
2022/01/02 07:24:51;;;;;;;;;;;20.70;58.60;;;;;;5042940;28;19916;-66
2022/01/02 07:27:20;;;;;;;;;;;20.70;58.60;;;;;;5039187;28;19917;-69
2022/01/02 07:29:50;;;;;;;;;;;20.70;58.60;;;;;;5041121;28;19924;-67
2022/01/02 07:32:15;;;;;;;;;;;20.70;58.60;;;;;;5040754;28;19982;-66
2022/01/02 07:34:42;;;;;;;;;;;20.70;58.60;;;;;;5041340;28;19913;-66
2022/01/02 07:37:08;;;;;;;;;;;20.70;58.60;;;;;;5037686;28;20452;-69
2022/01/02 07:39:33;;;;;;;;;;;20.70;58.60;;;;;;5040197;28;20023;-66
2022/01/02 07:41:59;;;;;;;;;;;20.70;58.60;;;;;;5043813;28;20470;-70
2022/01/02 07:44:24;;;;;;;;;;;20.70;58.50;;;;;;5038273;28;20340;-70
2022/01/02 07:46:50;;;;;;;;;;;20.70;58.50;;;;;;5041322;28;19913;-66
2022/01/02 07:49:15;;;;;;;;;;;20.70;58.60;;;;;;5037628;28;19912;-69
2022/01/02 07:51:40;;;;;;;;;;;20.70;58.50;;;;;;5037811;28;20038;-66
2022/01/02 07:54:06;;;;;;;;;;;20.70;58.50;;;;;;5044984;28;20426;-67
2022/01/02 07:56:32;;;;;;;;;;;20.70;58.50;;;;;;5039801;28;19992;-66
2022/01/02 07:58:58;;;;;;;;;;;20.60;58.50;;;;;;5034879;28;20324;-67
2022/01/02 08:01:24;;;;;;;;;;;20.60;58.50;;;;;;5032670;28;19920;-66
2022/01/02 08:03:50;;;;;;;;;;;20.60;58.50;;;;;;5043417;28;19966;-66
2022/01/02 08:06:16;;;;;;;;;;;20.60;58.40;;;;;;5041391;28;20265;-69
2022/01/02 08:08:42;;;;;;;;;;;20.70;58.50;;;;;;5042395;28;19913;-67
2022/01/02 08:11:08;;;;;;;;;;;20.70;58.50;;;;;;5045336;28;19916;-66
2022/01/02 08:13:33;;;;;;;;;;;20.70;58.50;;;;;;5045643;28;19916;-66
2022/01/02 08:15:59;;;;;;;;;;;20.60;58.40;;;;;;5043614;28;19915;-69
2022/01/02 08:18:24;;;;;;;;;;;20.60;58.40;;;;;;5038359;28;19913;-67
2022/01/02 08:20:50;;;;;;;;;;;20.60;58.50;;;;;;5044890;28;19909;-67
2022/01/02 08:23:15;;;;;;;;;;;20.60;58.40;;;;;;5040085;28;19916;-67
2022/01/02 08:25:41;;;;;;;;;;;20.60;58.50;;;;;;5044920;28;19928;-66
2022/01/02 08:28:06;;;;;;;;;;;20.60;58.40;;;;;;5043522;28;20359;-69
2022/01/02 08:30:32;;;;;;;;;;;20.60;58.40;;;;;;5042002;28;19923;-68
2022/01/02 08:32:57;;;;;;;;;;;20.60;58.40;;;;;;5045816;28;19909;-69
2022/01/02 08:35:23;;;;;;;;;;;20.60;58.40;;;;;;5046262;28;19913;-68
2022/01/02 08:37:49;;;;;;;;;;;20.60;58.40;;;;;;5041484;28;19908;-67
2022/01/02 08:40:14;;;;;;;;;;;20.60;58.40;;;;;;5042067;28;19913;-66
2022/01/02 08:42:40;;;;;;;;;;;20.60;58.40;;;;;;5041739;28;19912;-68
2022/01/02 08:45:06;;;;;;;;;;;20.60;58.40;;;;;;5044553;28;19919;-69
2022/01/02 08:47:31;;;;;;;;;;;20.60;58.40;;;;;;5039837;28;19988;-67
2022/01/02 08:49:57;;;;;;;;;;;20.60;58.50;;;;;;5044418;28;20065;-69
2022/01/02 08:52:24;;;;;;;;;;;20.60;58.40;;;;;;5039970;28;19912;-68
2022/01/02 08:54:50;;;;;;;;;;;20.60;58.40;;;;;;5040551;28;20039;-66
2022/01/02 08:57:16;;;;;;;;;;;20.60;58.50;;;;;;5042620;28;19923;-66
2022/01/02 08:59:41;;;;;;;;;;;20.60;58.50;;;;;;5039106;28;19928;-67
2022/01/02 09:02:07;;;;;;;;;;;20.60;58.40;;;;;;5038976;28;20407;-68
2022/01/02 09:04:33;;;;;;;;;;;20.60;58.40;;;;;;5037500;28;19912;-67
2022/01/02 09:06:59;;;;;;;;;;;20.60;58.40;;;;;;5042954;28;19919;-67
2022/01/02 09:09:24;;;;;;;;;;;20.60;58.40;;;;;;5042832;28;20252;-67
2022/01/02 09:11:50;;;;;;;;;;;20.60;58.40;;;;;;5043033;28;20443;-67
2022/01/02 09:14:16;;;;;;;;;;;20.60;58.40;;;;;;5043752;28;19944;-65
2022/01/02 09:16:44;;;;;;;;;;;20.60;58.40;;;;;;5041284;28;20010;-67
2022/01/02 09:19:10;;;;;;;;;;;20.60;58.40;;;;;;5040098;28;20007;-66
2022/01/02 09:21:36;;;;;;;;;;;20.60;58.40;;;;;;5039697;28;20048;-69
2022/01/02 09:24:01;;;;;;;;;;;20.60;58.40;;;;;;5039900;28;20011;-68
2022/01/02 09:26:27;;;;;;;;;;;20.60;58.40;;;;;;5041387;28;19912;-69
2022/01/02 09:28:52;;;;;;;;;;;20.60;58.40;;;;;;5041401;28;20345;-69
2022/01/02 09:31:18;;;;;;;;;;;20.50;58.30;;;;;;5040553;28;19924;-68
2022/01/02 09:33:43;;;;;;;;;;;20.50;58.30;;;;;;5035725;28;19939;-67
2022/01/02 09:36:09;;;;;;;;;;;20.60;58.40;;;;;;5043598;28;19912;-69
2022/01/02 09:38:34;;;;;;;;;;;20.50;58.30;;;;;;5043377;28;19962;-65
2022/01/02 09:41:00;;;;;;;;;;;20.60;58.40;;;;;;5042139;28;19916;-67
2022/01/02 09:43:26;;;;;;;;;;;20.50;58.40;;;;;;5041557;28;19909;-69
2022/01/02 09:45:52;;;;;;;;;;;20.60;58.40;;;;;;5040311;28;19921;-68
2022/01/02 09:48:17;;;;;;;;;;;20.60;58.40;;;;;;5043964;28;20414;-65
2022/01/02 09:50:43;;;;;;;;;;;20.50;58.40;;;;;;5042511;28;19962;-67
2022/01/02 09:53:08;;;;;;;;;;;20.50;58.40;;;;;;5042462;28;20280;-67
2022/01/02 09:55:34;;;;;;;;;;;20.60;58.50;;;;;;5040681;28;19920;-68
2022/01/02 09:58:00;;;;;;;;;;;20.50;58.40;;;;;;5042667;28;19920;-67
2022/01/02 10:00:27;;;;;;;;;;;20.50;58.40;;;;;;5040823;28;20067;-65
2022/01/02 10:02:53;;;;;;;;;;;20.50;58.50;;;;;;5041847;28;19912;-67
2022/01/02 10:05:21;;;;;;;;;;;20.60;58.70;;;;;;5038879;28;20471;-67
2022/01/02 10:07:47;;;;;;;;;;;20.60;58.70;;;;;;5038071;28;19913;-66
2022/01/02 10:10:13;;;;;;;;;;;20.50;58.60;;;;;;5039850;28;19912;-67
2022/01/02 10:12:38;;;;;;;;;;;20.50;58.60;;;;;;5042046;28;19917;-67
2022/01/02 10:15:25;;;;;;;;;;;20.50;58.70;;;;;;5042191;28;19958;-65
2022/01/02 10:17:52;;;;;;;;;;;20.50;58.70;;;;;;5039132;28;19956;-69
2022/01/02 10:20:18;;;;;;;;;;;20.60;58.80;;;;;;5037060;28;19951;-65
2022/01/02 10:22:59;;;;;;;;;;;20.60;58.80;;;;;;5038205;28;20281;-69
2022/01/02 10:25:45;;;;;;;;;;;20.60;58.80;;;;;;5050860;28;20622;-67
2022/01/02 10:28:17;;;;;;;;;;;20.60;58.80;;;;;;5042069;28;19974;-69
2022/01/02 10:30:50;;;;;;;;;;;20.60;58.80;;;;;;5034638;28;20629;-67
2022/01/02 10:33:16;;;;;;;;;;;20.50;58.80;;;;;;5038351;28;19912;-67
2022/01/02 10:35:41;;;;;;;;;;;20.60;58.80;;;;;;5040345;28;20239;-70
2022/01/02 10:38:13;;;;;;;;;;;20.50;58.80;;;;;;5039731;28;19916;-67
2022/01/02 10:40:39;;;;;;;;;;;20.60;58.80;;;;;;5033947;28;20035;-67
2022/01/02 10:43:25;;;;;;;;;;;20.50;58.80;;;;;;5038970;28;20008;-67
2022/01/02 10:45:51;;;;;;;;;;;20.50;58.90;;;;;;5040276;28;20018;-66
2022/01/02 10:48:18;;;;;;;;;;;20.50;58.80;;;;;;5040153;28;20458;-67
2022/01/02 10:50:58;;;;;;;;;;;20.60;58.90;;;;;;5037370;28;20524;-67
2022/01/02 10:53:24;;;;;;;;;;;20.60;58.90;;;;;;5037846;28;19916;-66
2022/01/02 10:55:49;;;;;;;;;;;20.60;58.90;;;;;;5037240;28;19924;-67
2022/01/02 10:58:15;;;;;;;;;;;20.60;58.90;;;;;;5040046;28;20034;-67
2022/01/02 11:00:41;;;;;;;;;;;20.50;58.90;;;;;;5036334;28;19921;-66
2022/01/02 11:03:07;;;;;;;;;;;20.60;58.90;;;;;;5040150;28;19966;-66
2022/01/02 11:05:34;;;;;;;;;;;20.60;58.90;;;;;;5039628;28;20645;-70
2022/01/02 11:08:00;;;;;;;;;;;20.60;59.00;;;;;;5036704;28;21066;-67
2022/01/02 11:10:27;;;;;;;;;;;20.60;58.90;;;;;;5035683;28;20396;-69
2022/01/02 11:12:53;;;;;;;;;;;20.60;59.00;;;;;;5040550;28;19940;-69
2022/01/02 11:15:20;;;;;;;;;;;20.60;59.00;;;;;;5038276;28;19962;-66
2022/01/02 11:17:46;;;;;;;;;;;20.60;59.00;;;;;;5035838;28;19920;-66
2022/01/02 11:20:21;;;;;;;;;;;20.60;59.00;;;;;;5037737;28;19908;-66
2022/01/02 11:22:53;;;;;;;;;;;20.60;59.10;;;;;;5035490;28;21323;-67
2022/01/02 11:25:22;;;;;;;;;;;20.60;59.10;;;;;;5038322;28;19914;-68
2022/01/02 11:28:11;;;;;;;;;;;20.60;59.10;;;;;;5039070;28;19916;-67
2022/01/02 11:30:37;;;;;;;;;;;20.60;59.10;;;;;;5033661;28;19916;-67
2022/01/02 11:33:08;;;;;;;;;;;20.60;59.10;;;;;;5033713;28;19917;-66
2022/01/02 11:35:35;;;;;;;;;;;20.60;59.10;;;;;;5039100;28;19909;-67
2022/01/02 11:38:02;;;;;;;;;;;20.60;59.10;;;;;;5036457;28;20011;-67
2022/01/02 11:40:47;;;;;;;;;;;20.60;59.20;;;;;;5039206;28;19976;-69
2022/01/02 11:43:32;;;;;;;;;;;20.60;59.20;;;;;;5035129;28;19917;-67
2022/01/02 11:46:19;;;;;;;;;;;20.60;59.30;;;;;;5035516;28;19913;-66
2022/01/02 11:49:13;;;;;;;;;;;20.60;59.20;;;;;;5040378;28;19917;-68
2022/01/02 11:51:48;;;;;;;;;;;20.60;59.20;;;;;;5026687;28;19916;-69
2022/01/02 11:54:40;;;;;;;;;;;20.60;59.20;;;;;;5033699;28;19912;-70
2022/01/02 11:57:14;;;;;;;;;;;20.60;59.20;;;;;;5048677;28;19917;-66
2022/01/02 11:59:40;;;;;;;;;;;20.60;59.20;;;;;;5032923;28;19917;-68
2022/01/02 12:02:09;;;;;;;;;;;20.60;59.20;;;;;;5036221;28;20803;-70
2022/01/02 12:05:19;;;;;;;;;;;20.60;59.30;;;;;;5036641;28;20007;-67
2022/01/02 12:07:55;;;;;;;;;;;20.60;59.30;;;;;;5039398;28;20212;-69
2022/01/02 12:10:31;;;;;;;;;;;20.60;59.30;;;;;;5039303;28;19913;-68
2022/01/02 12:12:59;;;;;;;;;;;20.60;59.30;;;;;;5037490;28;20019;-67
2022/01/02 12:15:30;;;;;;;;;;;20.60;59.30;;;;;;5034997;28;19986;-67
2022/01/02 12:18:08;;;;;;;;;;;20.60;59.80;;;;;;5037628;28;19920;-69
2022/01/02 12:21:00;;;;;;;;;;;20.60;59.30;;;;;;5036882;28;19987;-67
2022/01/02 12:23:31;;;;;;;;;;;20.60;59.30;;;;;;5036771;28;19916;-70
2022/01/02 12:25:58;;;;;;;;;;;20.60;59.30;;;;;;5041107;28;19912;-67
2022/01/02 12:28:23;;;;;;;;;;;20.60;59.50;;;;;;5040880;28;20364;-69
2022/01/02 12:30:51;;;;;;;;;;;20.60;59.60;;;;;;5040912;28;19949;-67
2022/01/02 12:33:27;;;;;;;;;;;20.60;59.70;;;;;;5043193;28;19916;-69
2022/01/02 12:35:52;;;;;;;;;;;20.60;59.90;;;;;;5041249;28;20007;-67
2022/01/02 12:38:18;;;;;;;;;;;20.60;59.90;;;;;;5038242;28;19970;-67
2022/01/02 12:40:44;;;;;;;;;;;20.60;60.00;;;;;;5044896;28;19936;-67
2022/01/02 12:43:10;;;;;;;;;;;20.60;59.80;;;;;;5044627;28;19924;-69
2022/01/02 12:45:36;;;;;;;;;;;20.60;60.00;;;;;;5043808;28;19909;-66
2022/01/02 12:48:02;;;;;;;;;;;20.60;60.10;;;;;;5041071;28;19913;-69
2022/01/02 12:50:28;;;;;;;;;;;20.60;60.20;;;;;;5042764;28;19921;-68
2022/01/02 12:52:55;;;;;;;;;;;20.60;60.20;;;;;;5038872;28;19916;-65
2022/01/02 12:55:21;;;;;;;;;;;20.70;60.50;;;;;;5046648;28;19943;-67
2022/01/02 12:57:46;;;;;;;;;;;20.70;60.50;;;;;;5044459;28;20042;-69
2022/01/02 13:00:12;;;;;;;;;;;20.70;60.60;;;;;;5040730;28;21789;-69
2022/01/02 13:02:38;;;;;;;;;;;20.70;60.40;;;;;;5040942;28;19921;-68
2022/01/02 13:05:03;;;;;;;;;;;20.70;60.40;;;;;;5039727;28;19917;-68
2022/01/02 13:07:37;;;;;;;;;;;20.70;60.30;;;;;;5042062;28;19916;-65
2022/01/02 13:10:04;;;;;;;;;;;20.70;60.30;;;;;;5043210;28;19912;-69
2022/01/02 13:12:30;;;;;;;;;;;20.70;60.30;;;;;;5037766;28;19912;-68
2022/01/02 13:14:57;;;;;;;;;;;20.70;60.40;;;;;;5041733;28;19913;-67
2022/01/02 13:17:30;;;;;;;;;;;20.70;60.40;;;;;;5045851;28;20586;-68
2022/01/02 13:20:09;;;;;;;;;;;20.70;60.40;;;;;;5039734;28;19913;-67
2022/01/02 13:22:39;;;;;;;;;;;20.70;60.40;;;;;;5060264;28;19916;-68
2022/01/02 13:25:10;;;;;;;;;;;20.70;60.40;;;;;;5042080;28;20475;-69
2022/01/02 13:27:47;;;;;;;;;;;20.70;60.30;;;;;;5042243;28;20373;-66
2022/01/02 13:30:16;;;;;;;;;;;20.70;60.40;;;;;;5042982;28;19914;-67
2022/01/02 13:32:41;;;;;;;;;;;20.70;60.40;;;;;;5038184;28;20029;-67
2022/01/02 13:35:08;;;;;;;;;;;20.70;60.50;;;;;;5042544;28;19932;-67
2022/01/02 13:37:35;;;;;;;;;;;20.70;60.50;;;;;;5038173;28;19927;-69
2022/01/02 13:40:01;;;;;;;;;;;20.70;60.50;;;;;;5041378;28;19908;-69
2022/01/02 13:42:41;;;;;;;;;;;20.70;60.50;;;;;;5039533;28;19912;-68
2022/01/02 13:45:07;;;;;;;;;;;20.70;60.50;;;;;;5036987;28;19920;-67
2022/01/02 13:47:34;;;;;;;;;;;20.70;60.50;;;;;;5038227;28;19920;-67
2022/01/02 13:50:00;;;;;;;;;;;20.70;60.50;;;;;;5033192;28;19917;-67
2022/01/02 13:52:25;;;;;;;;;;;20.70;60.50;;;;;;5036598;28;19913;-66
2022/01/02 13:55:05;;;;;;;;;;;20.70;60.50;;;;;;5035912;28;19951;-69
2022/01/02 13:57:31;;;;;;;;;;;20.70;60.50;;;;;;5041626;28;19967;-66
2022/01/02 13:59:56;;;;;;;;;;;20.70;60.50;;;;;;5039233;28;19966;-65
2022/01/02 14:02:37;;;;;;;;;;;20.70;60.50;;;;;;5038202;28;19970;-67
2022/01/02 14:05:02;;;;;;;;;;;20.70;60.50;;;;;;5038380;28;19913;-69
2022/01/02 14:07:29;;;;;;;;;;;20.70;60.50;;;;;;5037651;28;19935;-67
2022/01/02 14:09:54;;;;;;;;;;;20.70;60.50;;;;;;5035662;28;19947;-65
2022/01/02 14:12:33;;;;;;;;;;;20.70;60.50;;;;;;5039092;28;19995;-65
2022/01/02 14:15:07;;;;;;;;;;;20.70;60.50;;;;;;5034018;28;19923;-67
2022/01/02 14:17:36;;;;;;;;;;;20.70;60.50;;;;;;5035952;28;19943;-65
2022/01/02 14:20:03;;;;;;;;;;;20.80;60.50;;;;;;5037167;28;19960;-67
2022/01/02 14:22:33;;;;;;;;;;;20.80;60.50;;;;;;5035371;28;19919;-67